aviador You're here:

YLRE Decoded Metar

in
Report Time2018-02-17 23:00:00
UTC Time2018-02-17 23:40:07
Flight Rules vfr VFR
Wind360° at 12 kt
W.Decomp.*RWY 04: 9.2 kt HW 7.7 kt LCW
Visibility9999 m
Phenomena:N/A
Clouds:N/A
Expected CloudBase > 6,000 ft AGL from Temp-Dew spread
CeilingNone
Temp33°C
Dew Point18°C (41% RH)
Heat Index34.0°C
AAT31.5°C
QNH1010 hPa
Raw Report
METAR YLRE 172300Z AUTO 36012KT 9999 // NCD 33/18 Q1010=

Extra information for YLRE:More info

Social comments